sensor_id;sensor_type;location;lat;lon;timestamp;temperature;humidity
12769;DHT22;6448;48.916;8.990;2022-11-20T00:00:17;12.20;59.10
12769;DHT22;6448;48.916;8.990;2022-11-20T00:01:20;12.10;59.40
12769;DHT22;6448;48.916;8.990;2022-11-20T00:02:22;12.10;59.20
12769;DHT22;6448;48.916;8.990;2022-11-20T00:03:23;12.30;59.20
12769;DHT22;6448;48.916;8.990;2022-11-20T00:04:25;12.00;59.10
12769;DHT22;6448;48.916;8.990;2022-11-20T00:05:26;12.10;59.20
12769;DHT22;6448;48.916;8.990;2022-11-20T00:06:28;12.20;59.20
12769;DHT22;6448;48.916;8.990;2022-11-20T00:07:31;12.10;59.20
12769;DHT22;6448;48.916;8.990;2022-11-20T00:08:32;11.90;59.10
12769;DHT22;6448;48.916;8.990;2022-11-20T00:09:34;12.10;59.20
12769;DHT22;6448;48.916;8.990;2022-11-20T00:10:36;12.10;59.20
12769;DHT22;6448;48.916;8.990;2022-11-20T00:11:38;12.10;59.20
12769;DHT22;6448;48.916;8.990;2022-11-20T00:12:39;12.10;59.20
12769;DHT22;6448;48.916;8.990;2022-11-20T00:13:41;12.10;59.20
12769;DHT22;6448;48.916;8.990;2022-11-20T00:14:42;12.00;59.20
12769;DHT22;6448;48.916;8.990;2022-11-20T00:15:43;12.10;59.30
12769;DHT22;6448;48.916;8.990;2022-11-20T00:16:44;12.10;59.30
12769;DHT22;6448;48.916;8.990;2022-11-20T00:17:46;12.10;59.30
12769;DHT22;6448;48.916;8.990;2022-11-20T00:18:47;12.10;59.30
12769;DHT22;6448;48.916;8.990;2022-11-20T00:19:49;12.00;59.30
12769;DHT22;6448;48.916;8.990;2022-11-20T00:20:50;12.10;59.40
12769;DHT22;6448;48.916;8.990;2022-11-20T00:21:52;12.10;59.30
12769;DHT22;6448;48.916;8.990;2022-11-20T00:22:57;12.00;59.30
12769;DHT22;6448;48.916;8.990;2022-11-20T00:23:58;12.20;59.40
12769;DHT22;6448;48.916;8.990;2022-11-20T00:25:00;12.20;59.40
12769;DHT22;6448;48.916;8.990;2022-11-20T00:26:02;12.00;59.30
12769;DHT22;6448;48.916;8.990;2022-11-20T00:27:05;12.00;59.40
12769;DHT22;6448;48.916;8.990;2022-11-20T00:28:05;12.20;59.50
12769;DHT22;6448;48.916;8.990;2022-11-20T00:29:09;12.00;59.50
12769;DHT22;6448;48.916;8.990;2022-11-20T00:30:10;12.00;59.50
12769;DHT22;6448;48.916;8.990;2022-11-20T00:31:14;12.10;59.60
12769;DHT22;6448;48.916;8.990;2022-11-20T00:32:15;12.10;59.60
12769;DHT22;6448;48.916;8.990;2022-11-20T00:33:17;12.00;59.60
12769;DHT22;6448;48.916;8.990;2022-11-20T00:34:18;12.00;59.60
12769;DHT22;6448;48.916;8.990;2022-11-20T00:35:19;12.30;59.80
12769;DHT22;6448;48.916;8.990;2022-11-20T00:36:22;12.20;59.70
12769;DHT22;6448;48.916;8.990;2022-11-20T00:37:24;12.10;60.40
12769;DHT22;6448;48.916;8.990;2022-11-20T00:38:26;12.00;59.60
12769;DHT22;6448;48.916;8.990;2022-11-20T00:39:28;12.00;59.60
12769;DHT22;6448;48.916;8.990;2022-11-20T00:40:29;12.20;59.80
12769;DHT22;6448;48.916;8.990;2022-11-20T00:41:30;12.20;59.80
12769;DHT22;6448;48.916;8.990;2022-11-20T00:42:32;12.00;59.70
12769;DHT22;6448;48.916;8.990;2022-11-20T00:43:34;12.10;59.80
12769;DHT22;6448;48.916;8.990;2022-11-20T00:44:36;12.00;59.70
12769;DHT22;6448;48.916;8.990;2022-11-20T00:45:37;12.10;59.80
12769;DHT22;6448;48.916;8.990;2022-11-20T00:46:39;12.00;59.70
12769;DHT22;6448;48.916;8.990;2022-11-20T00:47:39;12.10;59.70
12769;DHT22;6448;48.916;8.990;2022-11-20T00:48:41;12.10;59.80
12769;DHT22;6448;48.916;8.990;2022-11-20T00:49:42;12.10;59.80
12769;DHT22;6448;48.916;8.990;2022-11-20T00:50:44;12.00;59.70
12769;DHT22;6448;48.916;8.990;2022-11-20T00:51:45;12.10;59.70
12769;DHT22;6448;48.916;8.990;2022-11-20T00:52:47;12.10;59.70
12769;DHT22;6448;48.916;8.990;2022-11-20T00:53:49;12.00;59.60
12769;DHT22;6448;48.916;8.990;2022-11-20T00:54:51;12.00;59.60
12769;DHT22;6448;48.916;8.990;2022-11-20T00:55:55;12.10;59.60
12769;DHT22;6448;48.916;8.990;2022-11-20T00:56:57;12.10;59.70
12769;DHT22;6448;48.916;8.990;2022-11-20T00:57:58;12.30;59.80
12769;DHT22;6448;48.916;8.990;2022-11-20T00:59:00;12.20;59.80
12769;DHT22;6448;48.916;8.990;2022-11-20T01:00:01;12.00;59.60
12769;DHT22;6448;48.916;8.990;2022-11-20T01:01:05;12.00;59.70
12769;DHT22;6448;48.916;8.990;2022-11-20T01:02:06;12.00;59.70
12769;DHT22;6448;48.916;8.990;2022-11-20T01:03:08;12.00;59.70
12769;DHT22;6448;48.916;8.990;2022-11-20T01:04:09;12.00;59.70
12769;DHT22;6448;48.916;8.990;2022-11-20T01:05:10;12.00;59.80
12769;DHT22;6448;48.916;8.990;2022-11-20T01:06:13;12.00;59.70
12769;DHT22;6448;48.916;8.990;2022-11-20T01:07:15;12.00;59.80
12769;DHT22;6448;48.916;8.990;2022-11-20T01:08:16;11.90;59.70
12769;DHT22;6448;48.916;8.990;2022-11-20T01:09:19;12.00;59.80
12769;DHT22;6448;48.916;8.990;2022-11-20T01:10:21;12.00;59.80
12769;DHT22;6448;48.916;8.990;2022-11-20T01:11:23;12.00;59.70
12769;DHT22;6448;48.916;8.990;2022-11-20T01:12:25;12.00;59.80
12769;DHT22;6448;48.916;8.990;2022-11-20T01:13:26;12.00;59.70
12769;DHT22;6448;48.916;8.990;2022-11-20T01:14:41;12.00;59.80
12769;DHT22;6448;48.916;8.990;2022-11-20T01:15:43;12.00;59.80
12769;DHT22;6448;48.916;8.990;2022-11-20T01:16:45;12.00;59.80
12769;DHT22;6448;48.916;8.990;2022-11-20T01:17:48;12.00;59.80
12769;DHT22;6448;48.916;8.990;2022-11-20T01:18:51;12.00;59.70
12769;DHT22;6448;48.916;8.990;2022-11-20T01:19:53;12.00;59.80
12769;DHT22;6448;48.916;8.990;2022-11-20T01:20:54;12.00;59.70
12769;DHT22;6448;48.916;8.990;2022-11-20T01:21:55;12.00;59.70
12769;DHT22;6448;48.916;8.990;2022-11-20T01:22:58;12.20;59.80
12769;DHT22;6448;48.916;8.990;2022-11-20T01:23:58;12.00;59.70
12769;DHT22;6448;48.916;8.990;2022-11-20T01:25:02;12.10;59.80
12769;DHT22;6448;48.916;8.990;2022-11-20T01:26:06;12.00;59.70
12769;DHT22;6448;48.916;8.990;2022-11-20T01:27:08;12.20;59.80
12769;DHT22;6448;48.916;8.990;2022-11-20T01:28:10;12.00;59.60
12769;DHT22;6448;48.916;8.990;2022-11-20T01:29:13;11.80;59.60
12769;DHT22;6448;48.916;8.990;2022-11-20T01:30:15;12.00;59.70
12769;DHT22;6448;48.916;8.990;2022-11-20T01:31:18;12.10;59.70
12769;DHT22;6448;48.916;8.990;2022-11-20T01:32:20;12.00;59.70
12769;DHT22;6448;48.916;8.990;2022-11-20T01:33:20;12.00;59.60
12769;DHT22;6448;48.916;8.990;2022-11-20T01:34:22;12.00;59.60
12769;DHT22;6448;48.916;8.990;2022-11-20T01:35:23;12.00;59.60
12769;DHT22;6448;48.916;8.990;2022-11-20T01:36:26;12.00;60.30
12769;DHT22;6448;48.916;8.990;2022-11-20T01:37:27;12.00;59.60
12769;DHT22;6448;48.916;8.990;2022-11-20T01:38:29;12.00;59.60
12769;DHT22;6448;48.916;8.990;2022-11-20T01:39:30;12.00;59.60
12769;DHT22;6448;48.916;8.990;2022-11-20T01:40:33;12.10;59.70
12769;DHT22;6448;48.916;8.990;2022-11-20T01:41:34;12.00;59.70
12769;DHT22;6448;48.916;8.990;2022-11-20T01:43:02;12.00;59.70
12769;DHT22;6448;48.916;8.990;2022-11-20T01:44:45;12.00;59.80
12769;DHT22;6448;48.916;8.990;2022-11-20T01:46:06;12.30;60.00
12769;DHT22;6448;48.916;8.990;2022-11-20T01:47:16;12.00;59.90
12769;DHT22;6448;48.916;8.990;2022-11-20T01:48:18;12.00;59.90
12769;DHT22;6448;48.916;8.990;2022-11-20T01:49:25;12.00;59.90
12769;DHT22;6448;48.916;8.990;2022-11-20T01:50:28;12.00;59.90
12769;DHT22;6448;48.916;8.990;2022-11-20T01:51:33;11.90;59.90
12769;DHT22;6448;48.916;8.990;2022-11-20T01:52:39;12.00;59.90
12769;DHT22;6448;48.916;8.990;2022-11-20T01:53:41;12.00;59.90
12769;DHT22;6448;48.916;8.990;2022-11-20T01:54:45;12.00;59.90
12769;DHT22;6448;48.916;8.990;2022-11-20T01:55:52;12.00;59.90
12769;DHT22;6448;48.916;8.990;2022-11-20T01:56:57;12.00;59.90
12769;DHT22;6448;48.916;8.990;2022-11-20T01:57:59;12.00;59.90
12769;DHT22;6448;48.916;8.990;2022-11-20T01:59:02;12.10;60.00
12769;DHT22;6448;48.916;8.990;2022-11-20T02:00:08;12.00;60.70
12769;DHT22;6448;48.916;8.990;2022-11-20T02:01:15;12.00;59.90
12769;DHT22;6448;48.916;8.990;2022-11-20T02:02:17;12.00;60.00
12769;DHT22;6448;48.916;8.990;2022-11-20T02:03:19;12.00;59.90
12769;DHT22;6448;48.916;8.990;2022-11-20T02:04:23;12.10;60.00
12769;DHT22;6448;48.916;8.990;2022-11-20T02:05:29;12.00;60.00
12769;DHT22;6448;48.916;8.990;2022-11-20T02:06:36;12.00;60.10
12769;DHT22;6448;48.916;8.990;2022-11-20T02:07:40;12.00;60.10
12769;DHT22;6448;48.916;8.990;2022-11-20T02:08:41;12.20;60.30
12769;DHT22;6448;48.916;8.990;2022-11-20T02:09:43;12.00;60.10
12769;DHT22;6448;48.916;8.990;2022-11-20T02:10:44;12.00;60.10
12769;DHT22;6448;48.916;8.990;2022-11-20T02:11:47;12.00;60.10
12769;DHT22;6448;48.916;8.990;2022-11-20T02:12:48;12.00;60.10
12769;DHT22;6448;48.916;8.990;2022-11-20T02:14:08;12.00;60.10
12769;DHT22;6448;48.916;8.990;2022-11-20T02:15:10;12.00;60.20
12769;DHT22;6448;48.916;8.990;2022-11-20T02:16:14;12.00;60.20
12769;DHT22;6448;48.916;8.990;2022-11-20T02:17:16;12.00;60.20
12769;DHT22;6448;48.916;8.990;2022-11-20T02:18:19;12.10;60.20
12769;DHT22;6448;48.916;8.990;2022-11-20T02:19:24;12.00;60.10
12769;DHT22;6448;48.916;8.990;2022-11-20T02:20:28;12.00;60.10
12769;DHT22;6448;48.916;8.990;2022-11-20T02:21:34;12.00;60.10
12769;DHT22;6448;48.916;8.990;2022-11-20T02:22:41;12.00;60.20
12769;DHT22;6448;48.916;8.990;2022-11-20T02:24:04;12.00;60.20
12769;DHT22;6448;48.916;8.990;2022-11-20T02:25:07;12.10;60.30
12769;DHT22;6448;48.916;8.990;2022-11-20T02:26:12;12.20;60.40
12769;DHT22;6448;48.916;8.990;2022-11-20T02:27:15;12.00;60.20
12769;DHT22;6448;48.916;8.990;2022-11-20T02:28:17;12.00;60.30
12769;DHT22;6448;48.916;8.990;2022-11-20T02:29:23;12.00;60.30
12769;DHT22;6448;48.916;8.990;2022-11-20T02:30:26;12.00;60.20
12769;DHT22;6448;48.916;8.990;2022-11-20T02:31:27;12.00;60.20
12769;DHT22;6448;48.916;8.990;2022-11-20T02:32:31;11.90;60.20
12769;DHT22;6448;48.916;8.990;2022-11-20T02:33:33;12.10;60.20
12769;DHT22;6448;48.916;8.990;2022-11-20T02:34:34;12.00;60.20
12769;DHT22;6448;48.916;8.990;2022-11-20T02:35:40;12.10;60.30
12769;DHT22;6448;48.916;8.990;2022-11-20T02:36:42;12.00;60.20
12769;DHT22;6448;48.916;8.990;2022-11-20T02:37:48;12.10;60.30
12769;DHT22;6448;48.916;8.990;2022-11-20T02:38:49;12.00;60.20
12769;DHT22;6448;48.916;8.990;2022-11-20T02:39:52;12.00;60.20
12769;DHT22;6448;48.916;8.990;2022-11-20T02:40:53;12.10;60.30
12769;DHT22;6448;48.916;8.990;2022-11-20T02:41:55;12.20;60.30
12769;DHT22;6448;48.916;8.990;2022-11-20T02:42:57;12.00;61.00
12769;DHT22;6448;48.916;8.990;2022-11-20T02:43:59;12.10;60.30
12769;DHT22;6448;48.916;8.990;2022-11-20T02:44:59;12.00;60.20
12769;DHT22;6448;48.916;8.990;2022-11-20T02:46:01;12.20;60.50
12769;DHT22;6448;48.916;8.990;2022-11-20T02:47:02;12.00;60.30
12769;DHT22;6448;48.916;8.990;2022-11-20T02:48:05;12.10;60.50
12769;DHT22;6448;48.916;8.990;2022-11-20T02:49:06;12.00;60.40
12769;DHT22;6448;48.916;8.990;2022-11-20T02:50:08;12.00;60.30
12769;DHT22;6448;48.916;8.990;2022-11-20T02:51:09;12.00;60.40
12769;DHT22;6448;48.916;8.990;2022-11-20T02:52:11;12.00;60.40
12769;DHT22;6448;48.916;8.990;2022-11-20T02:53:12;12.10;60.50
12769;DHT22;6448;48.916;8.990;2022-11-20T02:54:13;12.00;60.50
12769;DHT22;6448;48.916;8.990;2022-11-20T02:55:16;12.00;60.50
12769;DHT22;6448;48.916;8.990;2022-11-20T02:56:18;12.10;60.60
12769;DHT22;6448;48.916;8.990;2022-11-20T02:57:19;12.10;60.60
12769;DHT22;6448;48.916;8.990;2022-11-20T02:58:20;12.10;60.50
12769;DHT22;6448;48.916;8.990;2022-11-20T02:59:21;12.10;61.30
12769;DHT22;6448;48.916;8.990;2022-11-20T03:00:23;12.20;60.60
12769;DHT22;6448;48.916;8.990;2022-11-20T03:01:24;12.10;60.50
12769;DHT22;6448;48.916;8.990;2022-11-20T03:02:27;12.10;60.60
12769;DHT22;6448;48.916;8.990;2022-11-20T03:03:29;12.10;60.60
12769;DHT22;6448;48.916;8.990;2022-11-20T03:04:31;12.00;60.50
12769;DHT22;6448;48.916;8.990;2022-11-20T03:05:32;12.10;60.60
12769;DHT22;6448;48.916;8.990;2022-11-20T03:06:34;12.30;60.70
12769;DHT22;6448;48.916;8.990;2022-11-20T03:07:35;12.20;60.70
12769;DHT22;6448;48.916;8.990;2022-11-20T03:08:36;12.10;60.60
12769;DHT22;6448;48.916;8.990;2022-11-20T03:09:37;12.00;60.50
12769;DHT22;6448;48.916;8.990;2022-11-20T03:10:40;12.10;60.50
12769;DHT22;6448;48.916;8.990;2022-11-20T03:11:41;12.10;60.50
12769;DHT22;6448;48.916;8.990;2022-11-20T03:12:43;12.10;60.50
12769;DHT22;6448;48.916;8.990;2022-11-20T03:13:44;12.10;60.50
12769;DHT22;6448;48.916;8.990;2022-11-20T03:14:45;12.10;60.60
12769;DHT22;6448;48.916;8.990;2022-11-20T03:15:46;12.20;60.70
12769;DHT22;6448;48.916;8.990;2022-11-20T03:16:48;12.20;60.70
12769;DHT22;6448;48.916;8.990;2022-11-20T03:17:49;12.10;60.60
12769;DHT22;6448;48.916;8.990;2022-11-20T03:18:52;12.10;60.60
12769;DHT22;6448;48.916;8.990;2022-11-20T03:19:53;12.10;60.60
12769;DHT22;6448;48.916;8.990;2022-11-20T03:20:57;12.20;60.70
12769;DHT22;6448;48.916;8.990;2022-11-20T03:21:58;12.10;60.60
12769;DHT22;6448;48.916;8.990;2022-11-20T03:23:01;12.10;60.60
12769;DHT22;6448;48.916;8.990;2022-11-20T03:24:02;12.30;60.70
12769;DHT22;6448;48.916;8.990;2022-11-20T03:25:04;12.10;60.60
12769;DHT22;6448;48.916;8.990;2022-11-20T03:26:12;12.10;61.40
12769;DHT22;6448;48.916;8.990;2022-11-20T03:27:14;12.10;60.60
12769;DHT22;6448;48.916;8.990;2022-11-20T03:28:15;12.10;60.50
12769;DHT22;6448;48.916;8.990;2022-11-20T03:29:17;12.30;60.70
12769;DHT22;6448;48.916;8.990;2022-11-20T03:30:18;12.10;60.50
12769;DHT22;6448;48.916;8.990;2022-11-20T03:31:22;12.10;60.50
12769;DHT22;6448;48.916;8.990;2022-11-20T03:32:22;12.10;60.50
12769;DHT22;6448;48.916;8.990;2022-11-20T03:33:27;12.20;60.40
12769;DHT22;6448;48.916;8.990;2022-11-20T03:34:28;12.10;60.30
12769;DHT22;6448;48.916;8.990;2022-11-20T03:35:30;12.10;60.40
12769;DHT22;6448;48.916;8.990;2022-11-20T03:36:31;12.10;60.40
12769;DHT22;6448;48.916;8.990;2022-11-20T03:37:33;12.10;60.50
12769;DHT22;6448;48.916;8.990;2022-11-20T03:38:34;12.20;60.50
12769;DHT22;6448;48.916;8.990;2022-11-20T03:39:36;12.20;60.50
12769;DHT22;6448;48.916;8.990;2022-11-20T03:40:37;12.20;60.40
12769;DHT22;6448;48.916;8.990;2022-11-20T03:41:41;12.10;60.30
12769;DHT22;6448;48.916;8.990;2022-11-20T03:42:43;12.10;60.30
12769;DHT22;6448;48.916;8.990;2022-11-20T03:43:48;12.10;60.30
12769;DHT22;6448;48.916;8.990;2022-11-20T03:44:50;12.10;60.30
12769;DHT22;6448;48.916;8.990;2022-11-20T03:45:51;12.10;60.30
12769;DHT22;6448;48.916;8.990;2022-11-20T03:46:53;12.20;60.40
12769;DHT22;6448;48.916;8.990;2022-11-20T03:47:53;12.10;60.30
12769;DHT22;6448;48.916;8.990;2022-11-20T03:48:55;12.10;60.30
12769;DHT22;6448;48.916;8.990;2022-11-20T03:49:56;12.10;60.30
12769;DHT22;6448;48.916;8.990;2022-11-20T03:51:09;12.20;60.30
12769;DHT22;6448;48.916;8.990;2022-11-20T03:52:10;12.20;60.30
12769;DHT22;6448;48.916;8.990;2022-11-20T03:53:12;12.20;60.30
12769;DHT22;6448;48.916;8.990;2022-11-20T03:54:12;12.30;60.30
12769;DHT22;6448;48.916;8.990;2022-11-20T03:55:14;12.20;60.20
12769;DHT22;6448;48.916;8.990;2022-11-20T03:56:17;12.20;60.30
12769;DHT22;6448;48.916;8.990;2022-11-20T03:57:21;12.20;60.00
12769;DHT22;6448;48.916;8.990;2022-11-20T03:58:22;12.20;59.90
12769;DHT22;6448;48.916;8.990;2022-11-20T03:59:24;12.30;59.90
12769;DHT22;6448;48.916;8.990;2022-11-20T04:00:25;12.20;59.80
12769;DHT22;6448;48.916;8.990;2022-11-20T04:01:28;12.20;59.80
12769;DHT22;6448;48.916;8.990;2022-11-20T04:02:29;12.20;59.70
12769;DHT22;6448;48.916;8.990;2022-11-20T04:03:31;12.20;59.60
12769;DHT22;6448;48.916;8.990;2022-11-20T04:04:32;12.20;59.50
12769;DHT22;6448;48.916;8.990;2022-11-20T04:05:34;12.20;59.60
12769;DHT22;6448;48.916;8.990;2022-11-20T04:06:36;12.20;59.50
12769;DHT22;6448;48.916;8.990;2022-11-20T04:07:38;12.20;59.40
12769;DHT22;6448;48.916;8.990;2022-11-20T04:08:39;12.40;60.10
12769;DHT22;6448;48.916;8.990;2022-11-20T04:09:41;12.20;59.40
12769;DHT22;6448;48.916;8.990;2022-11-20T04:10:42;12.20;59.30
12769;DHT22;6448;48.916;8.990;2022-11-20T04:11:44;12.10;59.20
12769;DHT22;6448;48.916;8.990;2022-11-20T04:12:46;12.10;59.20
12769;DHT22;6448;48.916;8.990;2022-11-20T04:13:49;12.10;59.20
12769;DHT22;6448;48.916;8.990;2022-11-20T04:14:50;12.20;59.40
12769;DHT22;6448;48.916;8.990;2022-11-20T04:15:56;12.10;59.30
12769;DHT22;6448;48.916;8.990;2022-11-20T04:16:57;12.10;59.30
12769;DHT22;6448;48.916;8.990;2022-11-20T04:17:59;12.10;59.30
12769;DHT22;6448;48.916;8.990;2022-11-20T04:19:02;12.10;59.30
12769;DHT22;6448;48.916;8.990;2022-11-20T04:20:05;12.30;59.40
12769;DHT22;6448;48.916;8.990;2022-11-20T04:21:06;12.10;59.20
12769;DHT22;6448;48.916;8.990;2022-11-20T04:22:08;12.10;59.20
12769;DHT22;6448;48.916;8.990;2022-11-20T04:23:09;12.20;59.20
12769;DHT22;6448;48.916;8.990;2022-11-20T04:24:11;12.30;59.30
12769;DHT22;6448;48.916;8.990;2022-11-20T04:25:12;12.10;59.20
12769;DHT22;6448;48.916;8.990;2022-11-20T04:26:13;11.90;59.10
12769;DHT22;6448;48.916;8.990;2022-11-20T04:27:14;12.10;59.20
12769;DHT22;6448;48.916;8.990;2022-11-20T04:28:17;12.10;59.20
12769;DHT22;6448;48.916;8.990;2022-11-20T04:29:18;12.10;59.20
12769;DHT22;6448;48.916;8.990;2022-11-20T04:30:20;12.10;59.20
12769;DHT22;6448;48.916;8.990;2022-11-20T04:31:22;12.10;59.20
12769;DHT22;6448;48.916;8.990;2022-11-20T04:32:24;12.20;59.30
12769;DHT22;6448;48.916;8.990;2022-11-20T04:33:25;12.10;59.20
12769;DHT22;6448;48.916;8.990;2022-11-20T04:34:26;12.10;59.20
12769;DHT22;6448;48.916;8.990;2022-11-20T04:35:27;12.10;59.30
12769;DHT22;6448;48.916;8.990;2022-11-20T04:36:29;12.40;59.50
12769;DHT22;6448;48.916;8.990;2022-11-20T04:37:30;12.10;59.40
12769;DHT22;6448;48.916;8.990;2022-11-20T04:38:32;12.10;59.40
12769;DHT22;6448;48.916;8.990;2022-11-20T04:39:33;12.10;59.40
12769;DHT22;6448;48.916;8.990;2022-11-20T04:40:35;12.20;59.50
12769;DHT22;6448;48.916;8.990;2022-11-20T04:41:36;12.10;59.40
12769;DHT22;6448;48.916;8.990;2022-11-20T04:42:38;12.10;59.50
12769;DHT22;6448;48.916;8.990;2022-11-20T04:43:40;12.10;59.40
12769;DHT22;6448;48.916;8.990;2022-11-20T04:44:42;12.10;59.40
12769;DHT22;6448;48.916;8.990;2022-11-20T04:45:43;12.10;59.40
12769;DHT22;6448;48.916;8.990;2022-11-20T04:46:44;12.30;59.50
12769;DHT22;6448;48.916;8.990;2022-11-20T04:47:45;12.10;59.40
12769;DHT22;6448;48.916;8.990;2022-11-20T04:48:48;12.10;59.50
12769;DHT22;6448;48.916;8.990;2022-11-20T04:49:48;12.10;59.50
12769;DHT22;6448;48.916;8.990;2022-11-20T04:50:50;12.20;59.60
12769;DHT22;6448;48.916;8.990;2022-11-20T04:51:53;12.10;59.50
12769;DHT22;6448;48.916;8.990;2022-11-20T04:52:54;12.10;59.50
12769;DHT22;6448;48.916;8.990;2022-11-20T04:53:55;12.20;59.60
12769;DHT22;6448;48.916;8.990;2022-11-20T04:54:57;12.10;59.60
12769;DHT22;6448;48.916;8.990;2022-11-20T04:56:01;12.10;59.70
12769;DHT22;6448;48.916;8.990;2022-11-20T04:57:03;12.10;59.80
12769;DHT22;6448;48.916;8.990;2022-11-20T04:58:04;12.10;59.80
12769;DHT22;6448;48.916;8.990;2022-11-20T04:59:07;12.10;59.80
12769;DHT22;6448;48.916;8.990;2022-11-20T05:00:09;12.10;59.90
12769;DHT22;6448;48.916;8.990;2022-11-20T05:01:12;12.10;59.80
12769;DHT22;6448;48.916;8.990;2022-11-20T05:02:13;12.10;59.80
12769;DHT22;6448;48.916;8.990;2022-11-20T05:03:15;12.10;59.90
12769;DHT22;6448;48.916;8.990;2022-11-20T05:04:16;12.10;59.90
12769;DHT22;6448;48.916;8.990;2022-11-20T05:05:18;12.10;60.00
12769;DHT22;6448;48.916;8.990;2022-11-20T05:06:20;12.10;60.10
12769;DHT22;6448;48.916;8.990;2022-11-20T05:07:22;12.00;60.00
12769;DHT22;6448;48.916;8.990;2022-11-20T05:08:23;12.30;60.10
12769;DHT22;6448;48.916;8.990;2022-11-20T05:09:25;12.20;60.00
12769;DHT22;6448;48.916;8.990;2022-11-20T05:10:26;12.10;60.00
12769;DHT22;6448;48.916;8.990;2022-11-20T05:11:28;12.20;60.10
12769;DHT22;6448;48.916;8.990;2022-11-20T05:12:29;12.20;60.00
12769;DHT22;6448;48.916;8.990;2022-11-20T05:13:31;12.20;60.00
12769;DHT22;6448;48.916;8.990;2022-11-20T05:14:33;12.20;59.90
12769;DHT22;6448;48.916;8.990;2022-11-20T05:15:35;12.20;59.90
12769;DHT22;6448;48.916;8.990;2022-11-20T05:16:36;12.20;59.90
12769;DHT22;6448;48.916;8.990;2022-11-20T05:17:37;12.20;59.80
12769;DHT22;6448;48.916;8.990;2022-11-20T05:18:39;12.20;59.80
12769;DHT22;6448;48.916;8.990;2022-11-20T05:19:41;12.40;60.00
12769;DHT22;6448;48.916;8.990;2022-11-20T05:20:41;12.20;59.80
12769;DHT22;6448;48.916;8.990;2022-11-20T05:21:43;12.30;59.80
12769;DHT22;6448;48.916;8.990;2022-11-20T05:22:45;12.20;59.80
12769;DHT22;6448;48.916;8.990;2022-11-20T05:23:47;12.20;59.70
12769;DHT22;6448;48.916;8.990;2022-11-20T05:24:49;12.20;59.70
12769;DHT22;6448;48.916;8.990;2022-11-20T05:25:52;12.20;59.60
12769;DHT22;6448;48.916;8.990;2022-11-20T05:26:54;12.30;59.60
12769;DHT22;6448;48.916;8.990;2022-11-20T05:27:55;12.20;59.50
12769;DHT22;6448;48.916;8.990;2022-11-20T05:28:57;12.20;59.50
12769;DHT22;6448;48.916;8.990;2022-11-20T05:29:59;12.40;59.50
12769;DHT22;6448;48.916;8.990;2022-11-20T05:31:05;12.20;60.10
12769;DHT22;6448;48.916;8.990;2022-11-20T05:32:06;12.30;59.50
12769;DHT22;6448;48.916;8.990;2022-11-20T05:33:10;12.40;59.60
12769;DHT22;6448;48.916;8.990;2022-11-20T05:34:10;12.10;59.50
12769;DHT22;6448;48.916;8.990;2022-11-20T05:35:12;12.30;59.60
12769;DHT22;6448;48.916;8.990;2022-11-20T05:36:14;12.20;59.50
12769;DHT22;6448;48.916;8.990;2022-11-20T05:37:16;12.30;59.50
12769;DHT22;6448;48.916;8.990;2022-11-20T05:38:17;12.20;59.40
12769;DHT22;6448;48.916;8.990;2022-11-20T05:39:19;12.30;59.40
12769;DHT22;6448;48.916;8.990;2022-11-20T05:40:20;12.30;59.40
12769;DHT22;6448;48.916;8.990;2022-11-20T05:41:21;12.30;59.40
12769;DHT22;6448;48.916;8.990;2022-11-20T05:42:22;12.30;59.40
12769;DHT22;6448;48.916;8.990;2022-11-20T05:43:33;12.20;59.40
12769;DHT22;6448;48.916;8.990;2022-11-20T05:44:35;12.30;59.40
12769;DHT22;6448;48.916;8.990;2022-11-20T05:45:38;12.30;59.40
12769;DHT22;6448;48.916;8.990;2022-11-20T05:46:39;12.30;59.50
12769;DHT22;6448;48.916;8.990;2022-11-20T05:47:40;12.30;59.50
12769;DHT22;6448;48.916;8.990;2022-11-20T05:48:42;12.30;59.40
12769;DHT22;6448;48.916;8.990;2022-11-20T05:49:44;12.30;59.30
12769;DHT22;6448;48.916;8.990;2022-11-20T05:50:45;12.30;59.30
12769;DHT22;6448;48.916;8.990;2022-11-20T05:51:47;12.30;59.30
12769;DHT22;6448;48.916;8.990;2022-11-20T05:52:48;12.30;59.40
12769;DHT22;6448;48.916;8.990;2022-11-20T05:53:49;12.30;59.40
12769;DHT22;6448;48.916;8.990;2022-11-20T05:54:50;12.40;59.30
12769;DHT22;6448;48.916;8.990;2022-11-20T05:55:59;12.30;59.20
12769;DHT22;6448;48.916;8.990;2022-11-20T05:57:01;12.30;59.30
12769;DHT22;6448;48.916;8.990;2022-11-20T05:58:02;12.30;59.20
12769;DHT22;6448;48.916;8.990;2022-11-20T05:59:03;12.40;59.30
12769;DHT22;6448;48.916;8.990;2022-11-20T06:00:05;12.30;59.20
12769;DHT22;6448;48.916;8.990;2022-11-20T06:01:11;12.30;59.20
12769;DHT22;6448;48.916;8.990;2022-11-20T06:02:12;12.30;59.10
12769;DHT22;6448;48.916;8.990;2022-11-20T06:03:13;12.30;59.00
12769;DHT22;6448;48.916;8.990;2022-11-20T06:04:14;12.30;59.00
12769;DHT22;6448;48.916;8.990;2022-11-20T06:05:16;12.30;59.00
12769;DHT22;6448;48.916;8.990;2022-11-20T06:06:17;12.30;59.00
12769;DHT22;6448;48.916;8.990;2022-11-20T06:07:20;12.30;59.00
12769;DHT22;6448;48.916;8.990;2022-11-20T06:08:20;12.30;59.00
12769;DHT22;6448;48.916;8.990;2022-11-20T06:09:22;12.30;59.00
12769;DHT22;6448;48.916;8.990;2022-11-20T06:10:23;12.30;59.00
12769;DHT22;6448;48.916;8.990;2022-11-20T06:11:25;12.30;59.00
12769;DHT22;6448;48.916;8.990;2022-11-20T06:12:26;12.50;59.10
12769;DHT22;6448;48.916;8.990;2022-11-20T06:13:28;12.30;59.00
12769;DHT22;6448;48.916;8.990;2022-11-20T06:14:28;12.40;59.10
12769;DHT22;6448;48.916;8.990;2022-11-20T06:15:30;12.30;59.10
12769;DHT22;6448;48.916;8.990;2022-11-20T06:16:32;12.30;59.00
12769;DHT22;6448;48.916;8.990;2022-11-20T06:17:34;12.40;59.10
12769;DHT22;6448;48.916;8.990;2022-11-20T06:18:35;12.20;59.00
12769;DHT22;6448;48.916;8.990;2022-11-20T06:19:37;12.30;59.10
12769;DHT22;6448;48.916;8.990;2022-11-20T06:20:38;12.50;59.20
12769;DHT22;6448;48.916;8.990;2022-11-20T06:21:39;12.30;59.10
12769;DHT22;6448;48.916;8.990;2022-11-20T06:22:40;12.30;59.10
12769;DHT22;6448;48.916;8.990;2022-11-20T06:23:42;12.40;59.10
12769;DHT22;6448;48.916;8.990;2022-11-20T06:24:43;12.40;59.10
12769;DHT22;6448;48.916;8.990;2022-11-20T06:25:45;12.40;59.10
12769;DHT22;6448;48.916;8.990;2022-11-20T06:26:46;12.40;59.10
12769;DHT22;6448;48.916;8.990;2022-11-20T06:27:48;12.40;59.00
12769;DHT22;6448;48.916;8.990;2022-11-20T06:28:49;12.40;59.00
12769;DHT22;6448;48.916;8.990;2022-11-20T06:29:51;12.40;59.00
12769;DHT22;6448;48.916;8.990;2022-11-20T06:30:53;12.40;58.90
12769;DHT22;6448;48.916;8.990;2022-11-20T06:31:56;12.20;58.90
12769;DHT22;6448;48.916;8.990;2022-11-20T06:32:57;12.70;59.20
12769;DHT22;6448;48.916;8.990;2022-11-20T06:33:59;12.40;59.00
12769;DHT22;6448;48.916;8.990;2022-11-20T06:34:59;12.40;59.00
12769;DHT22;6448;48.916;8.990;2022-11-20T06:36:02;12.50;59.00
12769;DHT22;6448;48.916;8.990;2022-11-20T06:37:03;12.50;59.60
12769;DHT22;6448;48.916;8.990;2022-11-20T06:38:04;12.50;59.00
12769;DHT22;6448;48.916;8.990;2022-11-20T06:39:05;12.50;59.00
12769;DHT22;6448;48.916;8.990;2022-11-20T06:40:08;12.50;59.00